createdAt,value
2022-08-09T00:01:54.711Z,56.97
2022-08-09T00:04:34.524Z,59.10
2022-08-09T00:07:10.388Z,64.42
2022-08-09T00:09:39.844Z,64.57
2022-08-09T00:12:22.502Z,58.43
2022-08-09T00:14:55.849Z,55.43
2022-08-09T00:18:05.824Z,56.99
2022-08-09T00:20:13.905Z,59.00
2022-08-09T00:22:44.837Z,63.24
2022-08-09T00:25:23.351Z,63.25
2022-08-09T00:27:54.447Z,58.38
2022-08-09T00:30:26.148Z,56.73
2022-08-09T00:32:55.372Z,58.02
2022-08-09T00:35:24.156Z,59.04
2022-08-09T00:37:52.087Z,65.54
2022-08-09T00:40:21.557Z,66.07
2022-08-09T00:44:15.219Z,59.43
2022-08-09T00:45:37.563Z,55.97
2022-08-09T00:48:19.456Z,57.15
2022-08-09T00:50:47.717Z,59.06
2022-08-09T00:53:24.198Z,64.79
2022-08-09T00:56:04.956Z,65.11
2022-08-09T00:58:37.746Z,61.61
2022-08-09T01:01:17.656Z,55.52
2022-08-09T01:04:11.749Z,54.01
2022-08-09T01:06:54.198Z,54.92
2022-08-09T01:09:37.172Z,57.00
2022-08-09T01:12:53.793Z,63.50
2022-08-09T01:15:29.259Z,64.20
2022-08-09T01:18:04.833Z,55.70
2022-08-09T01:20:55.388Z,54.33
2022-08-09T01:24:02.838Z,55.68
2022-08-09T01:27:05.385Z,57.14
2022-08-09T01:29:48.481Z,64.56
2022-08-09T01:32:34.826Z,64.14
2022-08-09T01:35:28.407Z,57.70
2022-08-09T01:38:14.710Z,55.36
2022-08-09T01:40:53.147Z,57.00
2022-08-09T01:43:51.218Z,63.50
2022-08-09T01:46:49.388Z,64.93
2022-08-09T01:49:24.134Z,57.00
2022-08-09T01:51:57.580Z,55.61
2022-08-09T01:54:33.343Z,57.19
2022-08-09T01:57:14.948Z,62.29
2022-08-09T01:59:51.551Z,64.12
2022-08-09T02:02:30.886Z,57.80
2022-08-09T02:05:15.117Z,55.31
2022-08-09T02:08:39.588Z,56.56
2022-08-09T02:10:50.718Z,58.50
2022-08-09T02:13:26.293Z,64.55
2022-08-09T02:16:11.482Z,65.34
2022-08-09T02:18:48.386Z,62.35
2022-08-09T02:21:22.620Z,56.95
2022-08-09T02:23:56.694Z,55.69
2022-08-09T02:26:30.295Z,57.32
2022-08-09T02:29:06.767Z,59.34
2022-08-09T02:31:45.089Z,65.52
2022-08-09T02:34:40.515Z,65.61
2022-08-09T02:37:21.367Z,57.43
2022-08-09T02:40:09.468Z,55.50
2022-08-09T02:42:43.244Z,56.80
2022-08-09T02:45:34.174Z,59.12
2022-08-09T02:48:12.278Z,65.71
2022-08-09T02:51:02.539Z,65.40
2022-08-09T02:53:37.415Z,58.20
2022-08-09T02:56:09.190Z,56.07
2022-08-09T02:58:40.174Z,57.42
2022-08-09T03:01:11.140Z,62.94
2022-08-09T03:04:17.774Z,65.04
2022-08-09T03:06:36.195Z,57.63
2022-08-09T03:09:06.541Z,55.62
2022-08-09T03:12:05.591Z,56.89
2022-08-09T03:14:28.148Z,58.21
2022-08-09T03:17:01.732Z,65.55
2022-08-09T03:19:52.548Z,65.11
2022-08-09T03:22:25.699Z,57.63
2022-08-09T03:25:03.320Z,55.56
2022-08-09T03:27:57.203Z,56.91
2022-08-09T03:30:33.370Z,58.92
2022-08-09T03:33:17.850Z,65.99
2022-08-09T03:36:13.287Z,65.82
2022-08-09T03:38:43.619Z,57.46
2022-08-09T03:41:16.422Z,55.98
2022-08-09T03:44:03.758Z,57.09
2022-08-09T03:46:36.880Z,58.67
2022-08-09T03:49:07.930Z,65.41
2022-08-09T03:51:58.888Z,65.31
2022-08-09T03:54:34.896Z,57.88
2022-08-09T03:57:20.010Z,56.03
2022-08-09T03:59:54.360Z,57.14
2022-08-09T04:02:30.989Z,63.82
2022-08-09T04:05:06.283Z,64.52
2022-08-09T04:07:52.476Z,57.13
2022-08-09T04:10:29.719Z,54.93
2022-08-09T04:13:03.920Z,56.52
2022-08-09T04:15:42.558Z,58.63
2022-08-09T04:18:22.111Z,65.90
2022-08-09T04:20:51.291Z,63.95
2022-08-09T04:23:23.446Z,57.38
2022-08-09T04:25:55.175Z,55.30
2022-08-09T04:28:33.672Z,57.16
2022-08-09T04:31:09.002Z,58.31
2022-08-09T04:33:51.617Z,64.76
2022-08-09T04:36:28.678Z,63.85
2022-08-09T04:39:01.821Z,57.13
2022-08-09T04:41:33.248Z,54.74
2022-08-09T04:44:11.246Z,55.79
2022-08-09T04:46:59.421Z,57.62
2022-08-09T04:49:54.816Z,64.02
2022-08-09T04:52:28.428Z,63.78
2022-08-09T04:55:04.674Z,56.41
2022-08-09T04:57:54.092Z,54.27
2022-08-09T05:00:24.501Z,55.48
2022-08-09T05:02:57.212Z,57.69
2022-08-09T05:05:31.982Z,63.60
2022-08-09T05:08:27.232Z,62.85
2022-08-09T05:10:56.676Z,55.55
2022-08-09T05:13:32.984Z,53.79
2022-08-09T05:16:28.513Z,54.46
2022-08-09T05:19:08.122Z,55.70
2022-08-09T05:21:46.963Z,58.74
2022-08-09T05:24:34.543Z,59.16
2022-08-09T05:27:09.872Z,64.74
2022-08-09T05:29:43.070Z,62.58
2022-08-09T05:32:24.328Z,55.63
2022-08-09T05:34:55.180Z,54.25
2022-08-09T05:37:26.417Z,55.96
2022-08-09T05:39:54.835Z,57.54
2022-08-09T05:42:28.779Z,59.34
2022-08-09T05:44:57.660Z,65.25
2022-08-09T05:47:40.865Z,63.71
2022-08-09T05:50:49.546Z,56.21
2022-08-09T05:53:35.350Z,53.84
2022-08-09T05:56:25.837Z,55.39
2022-08-09T06:03:03.787Z,56.91
2022-08-09T06:05:57.345Z,58.20
2022-08-09T06:09:23.174Z,59.28
2022-08-09T06:12:17.375Z,59.68
2022-08-09T06:15:03.308Z,66.71
2022-08-09T06:18:03.151Z,63.66
2022-08-09T06:21:05.562Z,54.97
2022-08-09T06:23:55.541Z,51.67
2022-08-09T06:26:45.253Z,51.46
2022-08-09T06:29:15.818Z,52.45
2022-08-09T06:32:08.647Z,53.91
2022-08-09T06:34:31.619Z,53.98
2022-08-09T06:37:01.388Z,54.08
2022-08-09T06:39:48.275Z,54.62
2022-08-09T06:42:24.544Z,56.66
2022-08-09T06:44:54.371Z,55.86
2022-08-09T06:47:23.538Z,55.67
2022-08-09T06:50:13.221Z,56.40
2022-08-09T06:52:50.844Z,56.56
2022-08-09T06:55:23.399Z,56.90
2022-08-09T06:58:01.336Z,56.34
2022-08-09T07:00:48.754Z,56.61
2022-08-09T07:03:27.775Z,56.17
2022-08-09T07:06:04.502Z,55.93
2022-08-09T07:08:37.409Z,56.56
2022-08-09T07:11:12.447Z,56.88
2022-08-09T07:13:45.071Z,56.35
2022-08-09T07:16:42.093Z,56.74
2022-08-09T07:19:18.593Z,56.88
2022-08-09T07:22:00.164Z,57.06
2022-08-09T07:24:40.157Z,56.45
2022-08-09T07:27:26.826Z,56.07
2022-08-09T07:30:02.817Z,56.20
2022-08-09T07:32:32.181Z,56.32
2022-08-09T07:35:07.903Z,55.61
2022-08-09T07:37:45.794Z,54.69
2022-08-09T07:40:18.719Z,54.66
2022-08-09T07:43:00.061Z,54.82
2022-08-09T07:45:38.263Z,55.27
2022-08-09T07:48:28.898Z,55.46
2022-08-09T07:51:03.259Z,55.45
2022-08-09T07:54:06.829Z,55.21
2022-08-09T07:56:38.848Z,54.74
2022-08-09T07:59:16.117Z,54.96
2022-08-09T08:01:56.188Z,54.65
2022-08-09T08:04:31.515Z,53.34
2022-08-09T08:07:15.049Z,53.15
2022-08-09T08:10:04.687Z,53.45
2022-08-09T08:12:42.693Z,53.60
2022-08-09T08:15:23.217Z,53.74
2022-08-09T08:17:57.930Z,52.93
2022-08-09T08:20:32.316Z,52.85
2022-08-09T08:23:16.037Z,51.87
2022-08-09T08:25:49.801Z,51.63
2022-08-09T08:28:31.803Z,50.99
2022-08-09T08:31:10.680Z,51.92
2022-08-09T08:33:52.838Z,50.76
2022-08-09T08:36:28.909Z,50.09
2022-08-09T08:39:00.318Z,49.84
2022-08-09T08:41:51.097Z,48.80
2022-08-09T08:44:26.934Z,49.03
2022-08-09T08:47:04.959Z,49.14
2022-08-09T08:49:48.005Z,50.03
2022-08-09T08:55:19.047Z,48.78
2022-08-09T08:57:56.445Z,47.98
2022-08-09T09:00:29.923Z,48.32
2022-08-09T09:03:11.485Z,48.28
2022-08-09T09:05:58.197Z,47.73
2022-08-09T09:08:40.611Z,47.98
2022-08-09T09:11:46.675Z,47.03
2022-08-09T09:14:29.310Z,47.40
2022-08-09T09:17:07.849Z,46.93
2022-08-09T09:19:47.097Z,45.86
2022-08-09T09:22:26.822Z,46.03
2022-08-09T09:26:04.291Z,46.26
2022-08-09T09:28:05.530Z,44.88
2022-08-09T09:30:55.254Z,45.23
2022-08-09T09:33:44.834Z,45.97
2022-08-09T09:36:20.500Z,46.07
2022-08-09T09:38:58.589Z,46.08
2022-08-09T09:41:49.459Z,46.02
2022-08-09T09:44:31.812Z,46.73
2022-08-09T09:47:12.210Z,45.90
2022-08-09T09:50:14.354Z,46.99
2022-08-09T09:52:35.871Z,46.61
2022-08-09T09:55:28.492Z,47.05
2022-08-09T09:58:15.840Z,45.64
2022-08-09T10:00:54.399Z,45.07
2022-08-09T10:03:57.353Z,45.09
2022-08-09T10:06:42.602Z,44.05
2022-08-09T10:09:22.724Z,44.88
2022-08-09T10:12:12.317Z,45.20
2022-08-09T10:14:48.673Z,45.94
2022-08-09T10:17:38.893Z,46.15
2022-08-09T10:20:27.426Z,46.49
2022-08-09T10:23:23.626Z,46.28
2022-08-09T10:26:08.054Z,46.52
2022-08-09T10:28:43.373Z,46.76
2022-08-09T10:34:32.526Z,46.60
2022-08-09T10:37:00.410Z,46.61
2022-08-09T10:39:40.782Z,46.37
2022-08-09T10:42:19.969Z,46.76
2022-08-09T10:45:02.458Z,46.29
2022-08-09T10:48:19.301Z,46.08
2022-08-09T10:50:59.786Z,45.89
2022-08-09T10:53:38.166Z,45.61
2022-08-09T10:56:31.025Z,45.70
2022-08-09T10:59:03.945Z,45.86
2022-08-09T11:03:13.710Z,45.78
2022-08-09T11:04:31.726Z,45.79
2022-08-09T11:07:01.626Z,45.50
2022-08-09T11:09:41.191Z,45.16
2022-08-09T11:12:30.594Z,44.86
2022-08-09T11:15:23.979Z,44.80
2022-08-09T11:17:56.874Z,45.08
2022-08-09T11:20:49.634Z,44.90
2022-08-09T11:23:24.235Z,45.31
2022-08-09T11:25:58.472Z,45.39
2022-08-09T11:28:38.503Z,45.88
2022-08-09T11:31:49.549Z,45.95
2022-08-09T11:34:41.909Z,46.40
2022-08-09T11:37:26.570Z,46.58
2022-08-09T11:40:17.971Z,46.32
2022-08-09T11:42:50.533Z,46.15
2022-08-09T11:45:23.037Z,46.46
2022-08-09T11:48:11.095Z,46.83
2022-08-09T11:51:19.389Z,47.54
2022-08-09T11:54:28.264Z,48.01
2022-08-09T11:57:56.832Z,48.32
2022-08-09T12:00:32.687Z,48.16
2022-08-09T12:03:31.961Z,48.12
2022-08-09T12:05:55.352Z,48.59
2022-08-09T12:08:26.078Z,49.08
2022-08-09T12:11:01.297Z,48.99
2022-08-09T12:14:09.289Z,48.45
2022-08-09T12:16:38.616Z,48.07
2022-08-09T12:19:13.171Z,47.85
2022-08-09T12:21:51.780Z,47.44
2022-08-09T12:24:26.276Z,47.36
2022-08-09T12:29:14.326Z,46.68
2022-08-09T12:30:02.102Z,46.44
2022-08-09T12:32:44.772Z,46.63
2022-08-09T12:35:19.371Z,46.67
2022-08-09T12:37:52.116Z,46.72
2022-08-09T12:40:27.551Z,46.73
2022-08-09T12:42:56.934Z,46.85
2022-08-09T12:45:34.507Z,47.15
2022-08-09T12:48:20.269Z,47.55
2022-08-09T12:50:59.591Z,47.77
2022-08-09T12:53:40.963Z,47.98
2022-08-09T12:56:43.301Z,48.05
2022-08-09T12:59:16.888Z,48.06
2022-08-09T13:01:50.155Z,47.99
2022-08-09T13:04:33.337Z,48.23
2022-08-09T13:07:19.604Z,49.04
2022-08-09T13:09:55.651Z,49.35
2022-08-09T13:12:29.515Z,49.71
2022-08-09T13:15:09.971Z,49.68
2022-08-09T13:18:03.642Z,49.53
2022-08-09T13:21:04.293Z,50.03
2022-08-09T13:24:42.563Z,50.04
2022-08-09T13:26:36.563Z,49.92
2022-08-09T13:29:14.193Z,49.62
2022-08-09T13:32:17.219Z,49.36
2022-08-09T13:34:47.772Z,49.40
2022-08-09T13:37:24.787Z,49.13
2022-08-09T13:41:46.062Z,49.05
2022-08-09T13:42:57.928Z,49.19
2022-08-09T13:45:32.143Z,48.92
2022-08-09T13:48:14.633Z,48.74
2022-08-09T13:50:43.716Z,48.59
2022-08-09T13:53:11.622Z,48.95
2022-08-09T13:55:41.300Z,48.78
2022-08-09T13:58:12.922Z,48.80
2022-08-09T14:00:50.357Z,49.04
2022-08-09T14:04:02.458Z,49.30
2022-08-09T14:06:14.645Z,49.42
2022-08-09T14:08:47.668Z,49.52
2022-08-09T14:11:16.596Z,49.81
2022-08-09T14:14:24.620Z,49.97
2022-08-09T14:16:32.822Z,50.16
2022-08-09T14:19:02.622Z,50.16
2022-08-09T14:21:31.837Z,50.39
2022-08-09T14:24:05.601Z,50.53
2022-08-09T14:26:38.342Z,50.32
2022-08-09T14:30:18.477Z,50.11
2022-08-09T14:31:58.308Z,50.76
2022-08-09T14:34:33.933Z,51.01
2022-08-09T14:37:08.029Z,51.25
2022-08-09T14:39:45.303Z,51.20
2022-08-09T14:42:31.781Z,51.34
2022-08-09T14:46:39.706Z,52.08
2022-08-09T14:48:00.207Z,52.21
2022-08-09T14:50:34.076Z,52.86
2022-08-09T14:53:11.313Z,52.59
2022-08-09T14:55:47.908Z,52.42
2022-08-09T14:58:19.836Z,52.78
2022-08-09T15:00:50.956Z,52.61
2022-08-09T15:03:21.030Z,53.08
2022-08-09T15:05:52.613Z,53.52
2022-08-09T15:08:26.569Z,54.12
2022-08-09T15:11:00.380Z,54.24
2022-08-09T15:13:48.542Z,54.60
2022-08-09T15:16:19.915Z,54.18
2022-08-09T15:18:52.351Z,54.22
2022-08-09T15:21:56.461Z,53.98
2022-08-09T15:24:19.156Z,54.13
2022-08-09T15:26:53.219Z,54.17
2022-08-09T15:29:21.867Z,53.89
2022-08-09T15:35:02.278Z,54.60
2022-08-09T15:37:56.892Z,54.52
2022-08-09T15:40:47.208Z,54.67
2022-08-09T15:43:36.922Z,54.90
2022-08-09T15:46:28.128Z,55.50
2022-08-09T15:49:21.815Z,55.89
2022-08-09T15:52:04.697Z,55.93
2022-08-09T15:54:49.694Z,56.48
2022-08-09T15:57:34.540Z,57.02
2022-08-09T16:00:24.227Z,56.72
2022-08-09T16:02:55.995Z,56.16
2022-08-09T16:06:03.246Z,56.29
2022-08-09T16:08:49.836Z,56.41
2022-08-09T16:11:50.375Z,56.96
2022-08-09T16:14:32.811Z,56.85
2022-08-09T16:17:08.967Z,57.70
2022-08-09T16:20:05.073Z,57.78
2022-08-09T16:25:50.424Z,58.50
2022-08-09T16:28:25.491Z,58.25
2022-08-09T16:30:59.770Z,57.92
2022-08-09T16:36:35.696Z,56.97
2022-08-09T16:39:07.176Z,56.45
2022-08-09T16:42:02.171Z,55.88
2022-08-09T16:44:31.616Z,55.34
2022-08-09T16:47:03.993Z,54.87
2022-08-09T16:50:29.551Z,54.36
2022-08-09T16:52:44.100Z,53.85
2022-08-09T16:55:15.702Z,53.57
2022-08-09T16:58:09.886Z,53.38
2022-08-09T17:00:34.518Z,53.67
2022-08-09T17:03:02.531Z,53.36
2022-08-09T17:06:06.615Z,52.84
2022-08-09T17:08:42.703Z,52.52
2022-08-09T17:11:06.888Z,52.41
2022-08-09T17:13:37.607Z,52.70
2022-08-09T17:16:07.370Z,52.80
2022-08-09T17:18:35.796Z,52.75
2022-08-09T17:22:24.769Z,52.06
2022-08-09T17:24:47.709Z,52.78
2022-08-09T17:28:33.589Z,53.47
2022-08-09T17:31:16.004Z,53.98
2022-08-09T17:35:07.967Z,54.36
2022-08-09T17:38:02.552Z,54.39
2022-08-09T17:40:26.047Z,54.72
2022-08-09T17:42:59.293Z,55.04
2022-08-09T17:46:04.479Z,55.83
2022-08-09T17:52:02.721Z,57.58
2022-08-09T17:58:02.409Z,59.41
2022-08-09T18:01:09.838Z,60.31
2022-08-09T18:03:46.981Z,70.07
2022-08-09T18:06:31.442Z,64.04
2022-08-09T18:09:04.176Z,56.57
2022-08-09T18:11:46.818Z,53.79
2022-08-09T18:14:29.002Z,54.74
2022-08-09T18:16:57.059Z,56.42
2022-08-09T18:20:55.834Z,57.78
2022-08-09T18:22:17.020Z,58.84
2022-08-09T18:24:46.940Z,64.35
2022-08-09T18:27:33.662Z,63.97
2022-08-09T18:30:34.963Z,56.58
2022-08-09T18:33:31.306Z,55.19
2022-08-09T18:36:38.866Z,56.77
2022-08-09T18:39:33.870Z,57.88
2022-08-09T18:42:16.153Z,58.98
2022-08-09T18:44:45.899Z,65.87
2022-08-09T18:47:27.542Z,66.02
2022-08-09T18:50:17.241Z,58.40
2022-08-09T18:52:47.045Z,55.25
2022-08-09T18:55:56.265Z,55.77
2022-08-09T18:59:23.353Z,57.13
2022-08-09T19:06:22.057Z,67.10
2022-08-09T19:10:12.727Z,65.22
2022-08-09T19:12:25.131Z,55.82
2022-08-09T19:15:20.086Z,54.30
2022-08-09T19:18:48.087Z,55.07
2022-08-09T19:22:04.932Z,57.00
2022-08-09T19:25:09.674Z,58.11
2022-08-09T19:27:29.166Z,66.32
2022-08-09T19:30:22.199Z,64.34
2022-08-09T19:32:46.256Z,56.75
2022-08-09T19:35:26.050Z,54.66
2022-08-09T19:37:57.930Z,55.67
2022-08-09T19:40:34.010Z,56.95
2022-08-09T19:44:30.737Z,58.12
2022-08-09T19:47:28.901Z,58.08
2022-08-09T19:50:49.285Z,66.47
2022-08-09T19:53:55.344Z,65.05
2022-08-09T19:56:30.666Z,56.51
2022-08-09T19:59:18.566Z,54.51
2022-08-09T20:02:05.147Z,55.18
2022-08-09T20:04:40.824Z,57.21
2022-08-09T20:07:22.583Z,58.78
2022-08-09T20:09:51.175Z,65.42
2022-08-09T20:12:30.301Z,65.14
2022-08-09T20:16:32.858Z,57.95
2022-08-09T20:18:00.228Z,55.79
2022-08-09T20:20:28.605Z,57.60
2022-08-09T20:22:57.676Z,59.33
2022-08-09T20:25:26.838Z,65.02
2022-08-09T20:27:55.880Z,64.63
2022-08-09T20:30:25.241Z,58.32
2022-08-09T20:32:53.885Z,56.15
2022-08-09T20:35:22.397Z,57.17
2022-08-09T20:38:22.106Z,58.96
2022-08-09T20:40:41.111Z,65.90
2022-08-09T20:43:17.977Z,66.48
2022-08-09T20:45:58.406Z,59.69
2022-08-09T20:48:31.501Z,56.93
2022-08-09T20:51:01.351Z,58.35
2022-08-09T20:53:36.704Z,63.15
2022-08-09T20:56:20.272Z,65.12
2022-08-09T20:58:58.166Z,63.09
2022-08-09T21:01:35.095Z,57.37
2022-08-09T21:05:51.660Z,55.38
2022-08-09T21:07:14.078Z,57.32
2022-08-09T21:09:55.384Z,64.03
2022-08-09T21:15:15.205Z,58.13
2022-08-09T21:18:22.256Z,56.44
2022-08-09T21:20:35.554Z,57.88
2022-08-09T21:23:04.514Z,64.91
2022-08-09T21:25:58.787Z,66.35
2022-08-09T21:28:36.125Z,63.15
2022-08-09T21:31:16.296Z,57.10
2022-08-09T21:33:56.679Z,55.12
2022-08-09T21:36:30.850Z,57.16
2022-08-09T21:39:04.276Z,62.74
2022-08-09T21:42:06.100Z,64.74
2022-08-09T21:44:32.879Z,62.59
2022-08-09T21:47:07.749Z,57.20
2022-08-09T21:49:42.572Z,56.78
2022-08-09T21:52:17.786Z,58.08
2022-08-09T21:55:03.282Z,63.46
2022-08-09T21:57:59.809Z,63.76
2022-08-09T22:00:33.816Z,57.79
2022-08-09T22:03:07.879Z,56.47
2022-08-09T22:05:51.212Z,58.55
2022-08-09T22:08:24.503Z,65.06
2022-08-09T22:11:04.837Z,66.51
2022-08-09T22:13:44.703Z,65.17
2022-08-09T22:16:12.974Z,58.58
2022-08-09T22:18:53.330Z,56.29
2022-08-09T22:21:45.394Z,57.58
2022-08-09T22:24:20.906Z,63.22
2022-08-09T22:26:54.145Z,64.95
2022-08-09T22:29:28.785Z,62.45
2022-08-09T22:32:00.955Z,56.27
2022-08-09T22:34:30.151Z,55.11
2022-08-09T22:37:03.769Z,57.69
2022-08-09T22:39:55.322Z,63.80
2022-08-09T22:42:26.462Z,64.69
2022-08-09T22:45:00.376Z,61.09
2022-08-09T22:48:16.726Z,55.30
2022-08-09T22:50:35.509Z,55.27
2022-08-09T22:53:04.392Z,58.43
2022-08-09T22:56:06.336Z,64.75
2022-08-09T22:58:32.599Z,64.59
2022-08-09T23:01:06.250Z,61.84
2022-08-09T23:04:02.873Z,56.12
2022-08-09T23:06:32.637Z,55.31
2022-08-09T23:09:08.021Z,57.56
2022-08-09T23:11:36.217Z,63.53
2022-08-09T23:14:09.667Z,63.77
2022-08-09T23:16:38.567Z,57.65
2022-08-09T23:19:06.664Z,55.87
2022-08-09T23:21:36.446Z,57.68
2022-08-09T23:24:08.159Z,64.03
2022-08-09T23:26:38.048Z,64.57
2022-08-09T23:29:13.951Z,58.57
2022-08-09T23:31:42.357Z,56.10
2022-08-09T23:34:11.304Z,58.04
2022-08-09T23:36:39.186Z,64.46
2022-08-09T23:39:08.412Z,65.65
2022-08-09T23:41:36.336Z,61.78
2022-08-09T23:44:04.718Z,56.13
2022-08-09T23:46:33.899Z,54.80
2022-08-09T23:49:02.257Z,57.27
2022-08-09T23:51:31.446Z,62.85
2022-08-09T23:54:02.574Z,64.37
2022-08-09T23:56:52.000Z,58.48
2022-08-09T23:59:22.617Z,55.58
